Time;durP1;ratioP1;P1;durP2;ratioP2;P2;SDS_P1;SDS_P2;PMS_P1;PMS_P2;Temp;Humidity;BMP_temperature;BMP_pressure;BME280_temperature;BME280_humidity;BME280_pressure;Samples;Min_cycle;Max_cycle;Signal;HPM_P1;HPM_P2
2021/04/08 00:01:17;;;;;;;8.48;3.55;;;;;;;;;;5059725;28;21936;-59
2021/04/08 00:03:44;;;;;;;13.75;2.10;;;;;;;;;;5059100;28;20050;-59
2021/04/08 00:06:11;;;;;;;8.07;1.85;;;;;;;;;;5062004;28;20047;-59
2021/04/08 00:08:37;;;;;;;5.05;2.35;;;;;;;;;;5064378;28;20069;-59
2021/04/08 00:11:03;;;;;;;12.25;2.78;;;;;;;;;;5059910;28;20094;-59
2021/04/08 00:13:30;;;;;;;5.20;1.87;;;;;;;;;;5061374;28;20562;-59
2021/04/08 00:15:56;;;;;;;8.77;2.00;;;;;;;;;;5066747;28;20356;-59
2021/04/08 00:18:22;;;;;;;6.10;1.60;;;;;;;;;;5066215;28;20036;-59
2021/04/08 00:20:48;;;;;;;9.43;2.05;;;;;;;;;;5061917;28;20492;-59
2021/04/08 00:23:14;;;;;;;5.63;1.65;;;;;;;;;;5066008;28;20075;-59
2021/04/08 00:25:41;;;;;;;7.07;2.38;;;;;;;;;;5062156;28;20386;-60
2021/04/08 00:28:07;;;;;;;8.75;1.98;;;;;;;;;;5061267;28;20041;-58
2021/04/08 00:30:45;;;;;;;6.53;2.08;;;;;;;;;;5063148;28;20037;-59
2021/04/08 00:33:12;;;;;;;3.70;2.05;;;;;;;;;;5061302;28;20411;-59
2021/04/08 00:35:39;;;;;;;6.80;2.08;;;;;;;;;;5061867;28;20052;-59
2021/04/08 00:38:05;;;;;;;7.53;1.90;;;;;;;;;;5063378;28;20037;-58
2021/04/08 00:40:32;;;;;;;5.30;1.85;;;;;;;;;;5062562;28;20040;-59
2021/04/08 00:42:58;;;;;;;4.03;1.53;;;;;;;;;;5064297;28;20114;-59
2021/04/08 00:45:24;;;;;;;6.78;1.98;;;;;;;;;;5060484;28;20283;-59
2021/04/08 00:47:51;;;;;;;7.97;2.30;;;;;;;;;;5064929;28;20055;-59
2021/04/08 00:50:18;;;;;;;7.60;2.00;;;;;;;;;;5048821;28;20051;-58
2021/04/08 00:52:47;;;;;;;7.78;2.30;;;;;;;;;;5065103;28;20081;-59
2021/04/08 00:55:13;;;;;;;6.05;1.98;;;;;;;;;;5059410;28;20047;-59
2021/04/08 00:57:39;;;;;;;6.18;2.22;;;;;;;;;;5063995;28;22349;-59
2021/04/08 01:00:06;;;;;;;5.75;1.75;;;;;;;;;;5063840;28;20095;-58
2021/04/08 01:02:35;;;;;;;4.57;1.92;;;;;;;;;;5059474;28;20487;-59
2021/04/08 01:05:02;;;;;;;7.28;2.03;;;;;;;;;;5062600;28;20068;-59
2021/04/08 01:07:28;;;;;;;8.00;1.88;;;;;;;;;;5064892;28;20059;-59
2021/04/08 01:09:55;;;;;;;6.88;2.00;;;;;;;;;;5065825;28;20086;-59
2021/04/08 01:12:20;;;;;;;8.13;2.17;;;;;;;;;;5058423;28;20496;-59
2021/04/08 01:14:46;;;;;;;5.88;1.90;;;;;;;;;;5064636;28;20041;-59
2021/04/08 01:17:27;;;;;;;5.28;1.88;;;;;;;;;;5067454;28;20051;-59
2021/04/08 01:19:56;;;;;;;6.50;1.98;;;;;;;;;;5063871;28;20103;-59
2021/04/08 01:22:48;;;;;;;5.50;2.17;;;;;;;;;;5065658;28;20082;-59
2021/04/08 01:25:15;;;;;;;7.10;2.13;;;;;;;;;;5068875;28;20045;-58
2021/04/08 01:28:00;;;;;;;6.93;2.70;;;;;;;;;;5060773;28;20599;-59
2021/04/08 01:30:40;;;;;;;9.23;2.10;;;;;;;;;;5068898;28;20114;-59
2021/04/08 01:33:12;;;;;;;7.38;1.73;;;;;;;;;;5070781;28;20641;-59
2021/04/08 01:35:39;;;;;;;7.80;2.25;;;;;;;;;;5068381;28;20041;-59
2021/04/08 01:38:23;;;;;;;4.50;2.17;;;;;;;;;;5066071;28;20528;-59
2021/04/08 01:40:50;;;;;;;11.30;2.08;;;;;;;;;;5065900;28;20513;-59
2021/04/08 01:43:20;;;;;;;11.43;2.47;;;;;;;;;;5071796;28;20048;-59
2021/04/08 01:45:48;;;;;;;9.00;3.15;;;;;;;;;;5065764;28;20037;-59
2021/04/08 01:48:15;;;;;;;4.75;2.35;;;;;;;;;;5065411;28;20037;-59
2021/04/08 01:50:41;;;;;;;7.97;2.20;;;;;;;;;;5067375;28;20040;-59
2021/04/08 01:53:08;;;;;;;6.90;1.77;;;;;;;;;;5068341;28;20036;-59
2021/04/08 01:55:37;;;;;;;13.25;2.38;;;;;;;;;;5055697;28;20798;-59
2021/04/08 01:58:03;;;;;;;7.63;2.08;;;;;;;;;;5066238;28;20053;-59
2021/04/08 02:00:30;;;;;;;9.10;2.88;;;;;;;;;;5066273;28;20041;-59
2021/04/08 02:02:56;;;;;;;5.32;2.45;;;;;;;;;;5069087;28;20044;-59
2021/04/08 02:05:24;;;;;;;11.57;2.40;;;;;;;;;;5068903;28;20036;-59
2021/04/08 02:07:51;;;;;;;6.90;2.60;;;;;;;;;;5063331;28;20446;-59
2021/04/08 02:10:18;;;;;;;12.98;2.25;;;;;;;;;;5067599;28;20408;-59
2021/04/08 02:12:45;;;;;;;14.48;2.40;;;;;;;;;;5066516;28;20045;-59
2021/04/08 02:15:13;;;;;;;6.07;2.13;;;;;;;;;;5066202;28;20074;-59
2021/04/08 02:17:41;;;;;;;11.20;2.15;;;;;;;;;;5063885;28;20053;-59
2021/04/08 02:20:17;;;;;;;10.43;2.60;;;;;;;;;;5063346;28;20106;-58
2021/04/08 02:22:44;;;;;;;10.60;2.70;;;;;;;;;;5061852;28;20041;-59
2021/04/08 02:25:12;;;;;;;3.25;1.90;;;;;;;;;;5066228;28;20396;-59
2021/04/08 02:27:38;;;;;;;7.20;1.88;;;;;;;;;;5073227;28;20060;-59
2021/04/08 02:30:06;;;;;;;6.18;1.70;;;;;;;;;;5067924;28;20086;-59
2021/04/08 02:32:33;;;;;;;7.55;2.40;;;;;;;;;;5067434;28;20087;-58
2021/04/08 02:35:00;;;;;;;4.28;1.88;;;;;;;;;;5067859;28;20037;-59
2021/04/08 02:37:26;;;;;;;10.30;2.50;;;;;;;;;;5062507;28;20068;-59
2021/04/08 02:39:52;;;;;;;8.07;2.75;;;;;;;;;;5068198;28;20040;-60
2021/04/08 02:42:18;;;;;;;9.98;2.90;;;;;;;;;;5067464;28;20110;-59
2021/04/08 02:44:44;;;;;;;9.38;2.45;;;;;;;;;;5073236;28;20124;-59
2021/04/08 02:47:10;;;;;;;6.60;2.28;;;;;;;;;;5065252;28;20043;-59
2021/04/08 02:49:37;;;;;;;7.95;2.40;;;;;;;;;;5067213;28;20049;-59
2021/04/08 02:52:05;;;;;;;7.40;2.53;;;;;;;;;;5069932;28;20072;-59
2021/04/08 02:54:35;;;;;;;3.72;2.22;;;;;;;;;;5065689;28;20033;-59
2021/04/08 02:57:02;;;;;;;10.32;3.10;;;;;;;;;;5062982;28;20492;-59
2021/04/08 02:59:41;;;;;;;12.75;2.50;;;;;;;;;;5078894;28;20770;-59
2021/04/08 03:02:11;;;;;;;6.45;2.17;;;;;;;;;;5060393;28;20049;-59
2021/04/08 03:04:42;;;;;;;11.52;2.60;;;;;;;;;;5070215;28;20076;-59
2021/04/08 03:07:10;;;;;;;7.53;2.65;;;;;;;;;;5060761;28;20049;-59
2021/04/08 03:09:38;;;;;;;9.35;2.33;;;;;;;;;;5065047;28;20044;-59
2021/04/08 03:12:12;;;;;;;14.10;2.40;;;;;;;;;;5060666;28;20044;-59
2021/04/08 03:14:43;;;;;;;6.68;2.53;;;;;;;;;;5062115;28;20107;-59
2021/04/08 03:17:11;;;;;;;11.23;2.42;;;;;;;;;;5062014;28;20389;-59
2021/04/08 03:19:38;;;;;;;10.20;2.08;;;;;;;;;;5067514;28;20442;-59
2021/04/08 03:22:04;;;;;;;13.07;2.28;;;;;;;;;;5065524;28;20086;-59
2021/04/08 03:24:31;;;;;;;12.50;2.60;;;;;;;;;;5068280;28;20044;-59
2021/04/08 03:26:59;;;;;;;13.95;2.78;;;;;;;;;;5066755;28;20045;-59
2021/04/08 03:29:26;;;;;;;13.50;2.50;;;;;;;;;;5062851;28;20075;-59
2021/04/08 03:31:53;;;;;;;5.28;1.95;;;;;;;;;;5070214;28;20044;-59
2021/04/08 03:34:21;;;;;;;8.23;2.33;;;;;;;;;;5067566;28;20048;-59
2021/04/08 03:36:47;;;;;;;13.07;2.70;;;;;;;;;;5064176;28;20497;-59
2021/04/08 03:39:14;;;;;;;9.32;2.72;;;;;;;;;;5045960;28;20083;-59
2021/04/08 03:41:41;;;;;;;11.85;2.40;;;;;;;;;;5061634;28;20611;-59
2021/04/08 03:44:11;;;;;;;11.00;2.47;;;;;;;;;;5065978;28;20110;-59
2021/04/08 03:46:38;;;;;;;9.88;2.53;;;;;;;;;;5069404;28;20114;-59
2021/04/08 03:49:08;;;;;;;7.60;2.35;;;;;;;;;;5065090;28;20099;-59
2021/04/08 03:51:35;;;;;;;12.68;2.70;;;;;;;;;;5060675;28;20075;-59
2021/04/08 03:54:04;;;;;;;13.82;2.85;;;;;;;;;;5061312;28;20102;-59
2021/04/08 03:56:31;;;;;;;9.52;2.78;;;;;;;;;;5067388;28;20085;-59
2021/04/08 03:58:57;;;;;;;14.40;2.97;;;;;;;;;;5063277;28;20102;-59
2021/04/08 04:01:23;;;;;;;12.55;2.92;;;;;;;;;;5064332;28;20398;-59
2021/04/08 04:03:50;;;;;;;13.93;2.92;;;;;;;;;;5065842;28;20045;-59
2021/04/08 04:06:16;;;;;;;11.15;3.03;;;;;;;;;;5068147;28;20396;-58
2021/04/08 04:08:43;;;;;;;10.13;2.65;;;;;;;;;;5067301;28;20115;-58
2021/04/08 04:11:11;;;;;;;18.27;2.70;;;;;;;;;;5067437;28;20036;-58
2021/04/08 04:13:38;;;;;;;13.20;3.67;;;;;;;;;;5066602;28;20453;-58
2021/04/08 04:16:06;;;;;;;17.02;3.08;;;;;;;;;;5065544;28;20048;-58
2021/04/08 04:18:33;;;;;;;9.25;2.60;;;;;;;;;;5069434;28;20044;-58
2021/04/08 04:21:00;;;;;;;12.68;2.90;;;;;;;;;;5063295;28;20496;-58
2021/04/08 04:23:26;;;;;;;11.48;2.13;;;;;;;;;;5066290;28;20060;-58
2021/04/08 04:25:52;;;;;;;11.48;2.60;;;;;;;;;;5056451;28;20056;-58
2021/04/08 04:28:18;;;;;;;17.27;4.03;;;;;;;;;;5064301;28;20067;-58
2021/04/08 04:30:45;;;;;;;13.52;3.42;;;;;;;;;;5064472;28;20043;-58
2021/04/08 04:33:11;;;;;;;15.65;2.80;;;;;;;;;;5064638;28;20044;-58
2021/04/08 04:35:37;;;;;;;9.00;2.58;;;;;;;;;;5061100;28;20037;-58
2021/04/08 04:38:04;;;;;;;8.57;2.53;;;;;;;;;;5066867;28;20037;-58
2021/04/08 04:40:30;;;;;;;15.80;3.05;;;;;;;;;;5066603;28;20062;-58
2021/04/08 04:42:56;;;;;;;10.18;2.60;;;;;;;;;;5062664;28;20070;-58
2021/04/08 04:45:22;;;;;;;20.98;3.05;;;;;;;;;;5063242;28;20047;-58
2021/04/08 04:47:48;;;;;;;15.48;3.08;;;;;;;;;;5062484;28;20113;-58
2021/04/08 04:50:15;;;;;;;12.48;2.90;;;;;;;;;;5062256;28;20080;-58
2021/04/08 04:52:41;;;;;;;15.32;3.15;;;;;;;;;;5060516;28;20074;-58
2021/04/08 04:55:08;;;;;;;11.95;2.72;;;;;;;;;;5066330;28;20063;-58
2021/04/08 04:57:34;;;;;;;14.13;2.42;;;;;;;;;;5063333;28;20045;-58
2021/04/08 05:00:01;;;;;;;13.60;2.53;;;;;;;;;;5067127;28;20032;-57
2021/04/08 05:02:28;;;;;;;7.60;2.38;;;;;;;;;;5066965;28;20041;-58
2021/04/08 05:04:54;;;;;;;8.47;2.60;;;;;;;;;;5065781;28;20115;-58
2021/04/08 05:07:22;;;;;;;6.03;2.53;;;;;;;;;;5062591;28;20298;-58
2021/04/08 05:09:52;;;;;;;10.52;2.70;;;;;;;;;;5059912;28;20476;-58
2021/04/08 05:12:18;;;;;;;17.95;2.65;;;;;;;;;;5064091;28;20041;-56
2021/04/08 05:14:44;;;;;;;8.13;2.33;;;;;;;;;;5064753;28;20440;-58
2021/04/08 05:17:10;;;;;;;14.68;2.70;;;;;;;;;;5068691;28;20045;-58
2021/04/08 05:19:36;;;;;;;8.55;2.70;;;;;;;;;;5067480;28;20028;-58
2021/04/08 05:22:02;;;;;;;13.60;2.70;;;;;;;;;;5067238;28;20044;-58
2021/04/08 05:24:30;;;;;;;15.40;2.75;;;;;;;;;;5065753;28;20049;-58
2021/04/08 05:26:56;;;;;;;5.78;2.40;;;;;;;;;;5065284;28;20095;-58
2021/04/08 05:29:22;;;;;;;10.18;2.53;;;;;;;;;;5063308;28;20111;-58
2021/04/08 05:31:48;;;;;;;11.50;2.50;;;;;;;;;;5060799;28;20046;-57
2021/04/08 05:34:16;;;;;;;12.07;2.47;;;;;;;;;;5069342;28;20407;-58
2021/04/08 05:36:42;;;;;;;7.78;2.35;;;;;;;;;;5070030;28;20040;-58
2021/04/08 05:39:08;;;;;;;8.60;2.70;;;;;;;;;;5062050;28;20041;-58
2021/04/08 05:41:34;;;;;;;5.47;2.47;;;;;;;;;;5062168;28;20041;-58
2021/04/08 05:44:03;;;;;;;9.73;2.55;;;;;;;;;;5062688;28;20110;-58
2021/04/08 05:46:29;;;;;;;6.00;2.45;;;;;;;;;;5059701;28;20109;-57
2021/04/08 05:48:56;;;;;;;5.03;2.10;;;;;;;;;;5061057;28;20874;-58
2021/04/08 05:51:22;;;;;;;9.95;2.25;;;;;;;;;;5064620;28;20404;-58
2021/04/08 05:53:48;;;;;;;8.43;2.50;;;;;;;;;;5062382;28;20037;-58
2021/04/08 05:56:15;;;;;;;4.47;2.13;;;;;;;;;;5066869;28;20064;-58
2021/04/08 05:58:41;;;;;;;10.67;2.00;;;;;;;;;;5035804;28;20056;-58
2021/04/08 06:01:07;;;;;;;10.50;2.30;;;;;;;;;;5065202;28;20314;-57
2021/04/08 06:03:33;;;;;;;6.47;2.17;;;;;;;;;;5071149;28;20385;-58
2021/04/08 06:05:59;;;;;;;9.43;2.15;;;;;;;;;;5069008;28;20048;-58
2021/04/08 06:08:27;;;;;;;10.43;2.10;;;;;;;;;;5071432;28;20039;-58
2021/04/08 06:10:53;;;;;;;15.98;2.40;;;;;;;;;;5065428;28;20168;-58
2021/04/08 06:13:20;;;;;;;10.45;2.53;;;;;;;;;;5071853;28;20036;-58
2021/04/08 06:15:47;;;;;;;10.80;2.22;;;;;;;;;;5068996;28;20064;-58
2021/04/08 06:18:13;;;;;;;10.93;2.22;;;;;;;;;;5070099;28;20455;-57
2021/04/08 06:20:39;;;;;;;11.40;2.40;;;;;;;;;;5069329;28;20636;-57
2021/04/08 06:23:06;;;;;;;5.32;1.80;;;;;;;;;;5065232;28;20586;-58
2021/04/08 06:25:33;;;;;;;7.20;2.08;;;;;;;;;;5072120;28;20056;-57
2021/04/08 06:27:59;;;;;;;4.82;1.77;;;;;;;;;;5063679;28;20922;-58
2021/04/08 06:30:26;;;;;;;9.00;2.05;;;;;;;;;;5068289;28;20033;-58
2021/04/08 06:32:52;;;;;;;5.55;2.10;;;;;;;;;;5064988;28;20045;-58
2021/04/08 06:35:20;;;;;;;12.18;2.40;;;;;;;;;;5060610;28;20045;-58
2021/04/08 06:37:46;;;;;;;3.80;1.70;;;;;;;;;;5070045;28;20049;-58
2021/04/08 06:40:13;;;;;;;11.23;2.20;;;;;;;;;;5059021;28;20456;-58
2021/04/08 06:42:40;;;;;;;10.82;1.90;;;;;;;;;;5071771;28;20429;-58
2021/04/08 06:45:07;;;;;;;10.32;2.42;;;;;;;;;;5067642;28;20047;-58
2021/04/08 06:47:37;;;;;;;8.13;1.90;;;;;;;;;;5072867;28;20052;-58
2021/04/08 06:50:06;;;;;;;6.20;1.83;;;;;;;;;;5070788;28;20041;-58
2021/04/08 06:52:33;;;;;;;6.07;1.90;;;;;;;;;;5066204;28;20067;-58
2021/04/08 06:54:59;;;;;;;7.70;2.03;;;;;;;;;;5070797;28;20383;-58
2021/04/08 06:57:26;;;;;;;5.55;2.42;;;;;;;;;;5075123;28;20075;-58
2021/04/08 06:59:52;;;;;;;5.57;1.85;;;;;;;;;;5067252;28;20459;-58
2021/04/08 07:02:20;;;;;;;9.50;3.08;;;;;;;;;;5053573;28;20041;-58
2021/04/08 07:04:47;;;;;;;8.75;1.90;;;;;;;;;;5067344;28;20045;-58
2021/04/08 07:07:16;;;;;;;8.40;1.70;;;;;;;;;;5064326;28;20045;-58
2021/04/08 07:09:43;;;;;;;7.72;1.58;;;;;;;;;;5059090;28;20103;-58
2021/04/08 07:12:10;;;;;;;8.43;2.10;;;;;;;;;;5061639;28;20496;-58
2021/04/08 07:14:37;;;;;;;8.43;1.85;;;;;;;;;;5057324;28;20041;-58
2021/04/08 07:17:07;;;;;;;5.90;1.70;;;;;;;;;;5065231;28;20037;-58
2021/04/08 07:19:34;;;;;;;7.10;1.90;;;;;;;;;;5055397;28;20393;-58
2021/04/08 07:22:00;;;;;;;9.95;1.70;;;;;;;;;;5055069;28;20041;-58
2021/04/08 07:24:26;;;;;;;2.90;1.27;;;;;;;;;;5055743;28;20129;-58
2021/04/08 07:27:00;;;;;;;3.78;1.42;;;;;;;;;;5057359;28;20093;-58
2021/04/08 07:29:39;;;;;;;7.03;1.50;;;;;;;;;;5068701;28;20057;-58
2021/04/08 07:32:05;;;;;;;5.07;1.13;;;;;;;;;;5067567;28;20087;-58
2021/04/08 07:34:42;;;;;;;11.32;1.40;;;;;;;;;;5066525;28;20059;-58
2021/04/08 07:37:09;;;;;;;6.90;2.10;;;;;;;;;;5066607;28;20132;-58
2021/04/08 07:39:42;;;;;;;8.65;1.52;;;;;;;;;;5066755;28;20051;-58
2021/04/08 07:42:11;;;;;;;4.28;0.98;;;;;;;;;;5065741;28;20060;-58
2021/04/08 07:44:43;;;;;;;5.30;1.30;;;;;;;;;;5064728;28;20057;-59
2021/04/08 07:47:20;;;;;;;3.72;1.10;;;;;;;;;;5065521;28;20057;-59
2021/04/08 07:49:48;;;;;;;2.45;0.90;;;;;;;;;;5069174;28;20073;-58
2021/04/08 07:52:14;;;;;;;5.13;1.00;;;;;;;;;;5066082;28;20065;-58
2021/04/08 07:54:54;;;;;;;5.88;1.17;;;;;;;;;;5067272;28;20443;-59
2021/04/08 07:57:21;;;;;;;5.10;1.02;;;;;;;;;;5067047;28;20409;-59
2021/04/08 07:59:47;;;;;;;4.75;1.00;;;;;;;;;;5064761;28;20044;-58
2021/04/08 08:02:14;;;;;;;3.63;1.27;;;;;;;;;;5065223;28;20040;-58
2021/04/08 08:04:40;;;;;;;3.13;1.00;;;;;;;;;;5064438;28;20045;-58
2021/04/08 08:07:06;;;;;;;2.60;0.90;;;;;;;;;;5064314;28;20045;-59
2021/04/08 08:09:35;;;;;;;2.45;1.08;;;;;;;;;;5060363;28;20048;-59
2021/04/08 08:12:09;;;;;;;5.05;0.82;;;;;;;;;;5061309;28;20408;-58
2021/04/08 08:14:40;;;;;;;3.20;0.82;;;;;;;;;;5060776;28;20075;-58
2021/04/08 08:17:14;;;;;;;2.33;0.88;;;;;;;;;;5061552;28;20561;-58
2021/04/08 08:19:42;;;;;;;4.68;0.90;;;;;;;;;;5060416;28;20064;-58
2021/04/08 08:22:17;;;;;;;2.97;0.85;;;;;;;;;;5060384;28;20039;-58
2021/04/08 08:24:53;;;;;;;3.22;0.73;;;;;;;;;;5044592;28;20079;-58
2021/04/08 08:27:19;;;;;;;1.60;0.55;;;;;;;;;;5064915;28;20041;-59
2021/04/08 08:29:55;;;;;;;1.60;0.60;;;;;;;;;;5058625;28;20136;-58
2021/04/08 08:32:22;;;;;;;5.68;0.95;;;;;;;;;;5058753;28;20558;-58
2021/04/08 08:34:48;;;;;;;2.45;1.65;;;;;;;;;;5062804;28;20130;-59
2021/04/08 08:37:14;;;;;;;10.30;1.00;;;;;;;;;;5062418;28;20052;-59
2021/04/08 08:39:42;;;;;;;3.05;1.05;;;;;;;;;;5063908;28;20048;-59
2021/04/08 08:42:10;;;;;;;1.45;0.75;;;;;;;;;;5061358;28;20485;-59
2021/04/08 08:44:37;;;;;;;3.58;0.70;;;;;;;;;;5061158;28;20059;-58
2021/04/08 08:47:06;;;;;;;2.58;0.75;;;;;;;;;;5061653;28;20115;-59
2021/04/08 08:49:35;;;;;;;1.77;0.50;;;;;;;;;;5060535;28;20037;-58
2021/04/08 08:52:02;;;;;;;6.55;0.80;;;;;;;;;;5063727;28;20513;-59
2021/04/08 08:54:31;;;;;;;3.00;0.80;;;;;;;;;;5066506;28;20047;-59
2021/04/08 08:56:58;;;;;;;2.10;0.68;;;;;;;;;;5064483;28;20044;-59
2021/04/08 08:59:24;;;;;;;6.75;1.13;;;;;;;;;;5055443;28;20094;-59
2021/04/08 09:01:51;;;;;;;2.65;0.60;;;;;;;;;;5060532;28;20045;-59
2021/04/08 09:04:17;;;;;;;1.80;0.80;;;;;;;;;;5056882;28;20078;-59
2021/04/08 09:06:55;;;;;;;7.38;1.15;;;;;;;;;;5062464;28;20428;-59
2021/04/08 09:09:25;;;;;;;2.92;0.60;;;;;;;;;;5062795;28;20502;-59
2021/04/08 09:11:52;;;;;;;4.88;0.50;;;;;;;;;;5063413;28;20075;-59
2021/04/08 09:14:19;;;;;;;2.55;0.63;;;;;;;;;;5041486;28;20040;-59
2021/04/08 09:16:46;;;;;;;2.80;0.53;;;;;;;;;;5064855;28;20145;-59
2021/04/08 09:19:13;;;;;;;;;;;;;;;;;;5058562;28;20344;-59
2021/04/08 09:21:47;;;;;;;4.25;0.88;;;;;;;;;;5065374;28;19925;-59
2021/04/08 09:24:16;;;;;;;2.30;0.57;;;;;;;;;;5060130;28;20456;-59
2021/04/08 09:26:43;;;;;;;2.60;0.77;;;;;;;;;;5061370;28;20502;-59
2021/04/08 09:29:10;;;;;;;3.22;0.80;;;;;;;;;;5059601;28;20052;-59
2021/04/08 09:31:37;;;;;;;3.65;0.80;;;;;;;;;;5064767;28;20552;-59
2021/04/08 09:34:04;;;;;;;2.63;0.70;;;;;;;;;;5061822;28;20032;-59
2021/04/08 09:36:36;;;;;;;3.00;0.75;;;;;;;;;;5067127;28;20044;-59
2021/04/08 09:39:21;;;;;;;5.00;0.77;;;;;;;;;;5066364;28;20056;-59
2021/04/08 09:41:51;;;;;;;2.80;0.82;;;;;;;;;;5064475;28;20045;-59
2021/04/08 09:44:18;;;;;;;3.20;0.80;;;;;;;;;;5065591;28;20041;-59
2021/04/08 09:46:55;;;;;;;4.10;1.20;;;;;;;;;;5063088;28;20066;-59
2021/04/08 09:49:36;;;;;;;4.72;0.85;;;;;;;;;;5063962;28;20137;-60
2021/04/08 09:52:02;;;;;;;2.92;1.08;;;;;;;;;;5062399;28;20245;-59
2021/04/08 09:54:41;;;;;;;2.22;0.70;;;;;;;;;;5066000;28;20036;-59
2021/04/08 09:57:08;;;;;;;3.42;1.02;;;;;;;;;;5063085;28;20045;-58
2021/04/08 09:59:54;;;;;;;3.63;1.25;;;;;;;;;;5068640;28;20047;-59
2021/04/08 10:02:23;;;;;;;2.75;0.77;;;;;;;;;;5065276;28;20040;-59
2021/04/08 10:05:09;;;;;;;3.65;0.98;;;;;;;;;;5063003;28;20048;-59
2021/04/08 10:07:49;;;;;;;1.98;0.80;;;;;;;;;;5068622;28;21370;-59
2021/04/08 10:10:17;;;;;;;2.65;1.00;;;;;;;;;;5064084;28;20049;-59
2021/04/08 10:12:43;;;;;;;4.13;1.10;;;;;;;;;;5066840;28;20040;-59
2021/04/08 10:15:14;;;;;;;3.63;0.98;;;;;;;;;;5066311;28;20094;-59
2021/04/08 10:17:40;;;;;;;3.95;1.10;;;;;;;;;;5065921;28;20049;-59
2021/04/08 10:20:08;;;;;;;5.88;1.20;;;;;;;;;;5064997;28;20032;-59
2021/04/08 10:22:41;;;;;;;6.00;1.17;;;;;;;;;;5064943;28;20082;-59
2021/04/08 10:25:08;;;;;;;6.00;0.95;;;;;;;;;;5068320;28;20182;-59
2021/04/08 10:27:34;;;;;;;3.38;0.95;;;;;;;;;;5063652;28;20033;-59
2021/04/08 10:30:10;;;;;;;21.23;1.38;;;;;;;;;;5046614;28;20033;-59
2021/04/08 10:32:38;;;;;;;7.05;0.90;;;;;;;;;;5046280;28;20049;-59
2021/04/08 10:35:17;;;;;;;10.13;1.50;;;;;;;;;;5045896;28;20034;-59
2021/04/08 10:37:43;;;;;;;;;;;;;;;;;;5033677;28;20065;-59
2021/04/08 10:40:09;;;;;;;5.10;1.15;;;;;;;;;;5046676;28;20015;-59
2021/04/08 10:42:35;;;;;;;5.20;1.00;;;;;;;;;;5049651;28;20054;-59
2021/04/08 10:45:06;;;;;;;2.28;0.63;;;;;;;;;;5048351;28;20040;-59
2021/04/08 10:47:33;;;;;;;6.28;1.20;;;;;;;;;;5043213;28;20867;-59
2021/04/08 10:50:00;;;;;;;2.28;0.85;;;;;;;;;;5051348;28;20075;-58
2021/04/08 10:52:28;;;;;;;6.10;1.08;;;;;;;;;;5052037;28;20044;-59
2021/04/08 10:54:55;;;;;;;3.13;0.68;;;;;;;;;;5050476;28;20115;-59
2021/04/08 10:57:21;;;;;;;6.20;1.23;;;;;;;;;;5053913;28;20451;-59
2021/04/08 10:59:48;;;;;;;5.15;0.85;;;;;;;;;;5034155;28;20049;-59
2021/04/08 11:02:29;;;;;;;2.97;1.05;;;;;;;;;;5043276;28;20083;-59
2021/04/08 11:05:03;;;;;;;5.10;1.25;;;;;;;;;;5042886;28;20460;-59
2021/04/08 11:07:34;;;;;;;6.32;1.27;;;;;;;;;;5039717;28;20045;-58
2021/04/08 11:10:07;;;;;;;9.43;1.55;;;;;;;;;;5043660;28;20047;-58
2021/04/08 11:12:34;;;;;;;3.53;0.68;;;;;;;;;;5047744;28;20094;-59
2021/04/08 11:15:02;;;;;;;5.72;1.00;;;;;;;;;;5042338;28;20060;-59
2021/04/08 11:17:28;;;;;;;7.22;1.15;;;;;;;;;;5043757;28;20044;-59
2021/04/08 11:19:57;;;;;;;4.05;0.63;;;;;;;;;;5046443;28;20047;-59
2021/04/08 11:22:29;;;;;;;4.30;1.15;;;;;;;;;;5041149;28;20075;-59
2021/04/08 11:24:55;;;;;;;5.32;1.40;;;;;;;;;;5048766;28;20106;-59
2021/04/08 11:27:44;;;;;;;7.57;1.27;;;;;;;;;;5046882;28;20416;-59
2021/04/08 11:30:18;;;;;;;7.03;1.40;;;;;;;;;;5047003;28;20052;-58
2021/04/08 11:32:45;;;;;;;2.58;0.80;;;;;;;;;;5045261;28;20114;-59
2021/04/08 11:35:27;;;;;;;3.22;0.85;;;;;;;;;;5045280;28;20083;-58
2021/04/08 11:38:03;;;;;;;7.57;1.83;;;;;;;;;;5041574;28;20045;-58
2021/04/08 11:40:30;;;;;;;4.88;1.17;;;;;;;;;;5045693;28;20056;-58
2021/04/08 11:43:19;;;;;;;4.28;1.38;;;;;;;;;;5041783;28;20048;-58
2021/04/08 11:45:46;;;;;;;2.65;1.08;;;;;;;;;;5046124;28;20045;-59
2021/04/08 11:48:12;;;;;;;3.88;1.17;;;;;;;;;;5045507;28;20120;-58
2021/04/08 11:50:45;;;;;;;9.95;2.13;;;;;;;;;;5043143;28;20057;-59
2021/04/08 11:53:12;;;;;;;10.82;1.60;;;;;;;;;;5046059;28;20064;-58
2021/04/08 11:55:38;;;;;;;4.63;1.02;;;;;;;;;;5042772;28;20382;-58
2021/04/08 11:58:05;;;;;;;5.72;1.35;;;;;;;;;;5038498;28;20128;-59
2021/04/08 12:00:31;;;;;;;9.60;1.45;;;;;;;;;;5037425;28;20045;-58
2021/04/08 12:03:11;;;;;;;4.70;1.27;;;;;;;;;;5046162;28;20102;-58
2021/04/08 12:05:37;;;;;;;6.32;1.38;;;;;;;;;;5044836;28;20049;-58
2021/04/08 12:08:04;;;;;;;6.32;1.80;;;;;;;;;;5043994;28;20087;-58
2021/04/08 12:10:31;;;;;;;8.70;1.73;;;;;;;;;;5043777;28;20072;-58
2021/04/08 12:13:05;;;;;;;6.53;1.50;;;;;;;;;;5043402;28;20048;-58
2021/04/08 12:15:32;;;;;;;6.13;1.08;;;;;;;;;;5042244;28;20056;-59
2021/04/08 12:17:59;;;;;;;7.40;1.40;;;;;;;;;;5042074;28;20072;-58
2021/04/08 12:20:26;;;;;;;8.57;1.80;;;;;;;;;;5039161;28;20073;-58
2021/04/08 12:22:53;;;;;;;6.88;1.60;;;;;;;;;;5044172;28;20052;-58
2021/04/08 12:25:20;;;;;;;5.28;1.52;;;;;;;;;;5039470;28;20493;-59
2021/04/08 12:27:47;;;;;;;9.20;2.03;;;;;;;;;;5042209;28;20061;-58
2021/04/08 12:30:14;;;;;;;;;;;;;;;;;;5039896;28;20033;-58
2021/04/08 12:32:41;;;;;;;8.75;1.35;;;;;;;;;;5042694;28;19964;-58
2021/04/08 12:35:08;;;;;;;3.97;1.30;;;;;;;;;;5048018;28;20055;-58
2021/04/08 12:37:34;;;;;;;6.72;1.08;;;;;;;;;;5045684;28;20539;-58
2021/04/08 12:40:04;;;;;;;10.13;1.50;;;;;;;;;;5043648;28;20041;-58
2021/04/08 12:42:30;;;;;;;21.60;1.93;;;;;;;;;;5046686;28;20056;-58
2021/04/08 12:44:57;;;;;;;6.10;1.58;;;;;;;;;;5040105;28;20311;-58
2021/04/08 12:47:25;;;;;;;7.38;1.55;;;;;;;;;;5045529;28;20099;-58
2021/04/08 12:49:51;;;;;;;5.03;1.05;;;;;;;;;;5045795;28;20776;-58
2021/04/08 12:52:18;;;;;;;8.23;2.00;;;;;;;;;;5044049;28;20049;-58
2021/04/08 12:54:44;;;;;;;8.55;1.13;;;;;;;;;;5047131;28;20059;-58
2021/04/08 12:57:10;;;;;;;9.43;2.03;;;;;;;;;;5040088;28;20040;-58
2021/04/08 12:59:37;;;;;;;6.82;1.63;;;;;;;;;;5042937;28;20118;-58
2021/04/08 13:02:05;;;;;;;8.15;1.85;;;;;;;;;;5041712;28;20042;-58
2021/04/08 13:04:32;;;;;;;5.43;1.30;;;;;;;;;;5041404;28;20047;-58
2021/04/08 13:06:58;;;;;;;7.40;1.17;;;;;;;;;;5043540;28;20064;-58
2021/04/08 13:09:25;;;;;;;4.00;1.38;;;;;;;;;;5041148;28;20056;-58
2021/04/08 13:11:51;;;;;;;4.70;1.25;;;;;;;;;;5041824;28;20116;-58
2021/04/08 13:14:17;;;;;;;6.93;1.50;;;;;;;;;;5038412;28;20538;-58
2021/04/08 13:16:44;;;;;;;6.93;1.30;;;;;;;;;;5043091;28;20060;-58
2021/04/08 13:19:10;;;;;;;3.88;1.00;;;;;;;;;;5045112;28;20139;-58
2021/04/08 13:21:36;;;;;;;9.23;1.40;;;;;;;;;;5038291;28;20048;-58
2021/04/08 13:24:03;;;;;;;3.80;1.00;;;;;;;;;;5042155;28;20044;-58
2021/04/08 13:26:29;;;;;;;3.97;0.80;;;;;;;;;;5037756;28;20107;-58
2021/04/08 13:28:55;;;;;;;3.25;0.95;;;;;;;;;;5055988;28;20111;-58
2021/04/08 13:31:22;;;;;;;6.55;1.20;;;;;;;;;;5063771;28;20503;-58
2021/04/08 13:33:48;;;;;;;7.55;1.25;;;;;;;;;;5069179;28;20044;-59
2021/04/08 13:36:17;;;;;;;5.85;1.40;;;;;;;;;;5062117;28;20488;-58
2021/04/08 13:38:44;;;;;;;6.13;1.48;;;;;;;;;;5057338;28;20041;-58
2021/04/08 13:41:10;;;;;;;2.72;0.82;;;;;;;;;;5060777;28;20102;-59
2021/04/08 13:43:36;;;;;;;3.88;1.30;;;;;;;;;;5063130;28;20061;-58
2021/04/08 13:46:03;;;;;;;3.63;1.10;;;;;;;;;;5058474;28;20037;-59
2021/04/08 13:48:29;;;;;;;2.93;0.80;;;;;;;;;;5059922;28;20041;-58
2021/04/08 13:50:55;;;;;;;4.55;1.20;;;;;;;;;;5059934;28;20287;-58
2021/04/08 13:53:23;;;;;;;6.45;1.20;;;;;;;;;;5062867;28;20094;-58
2021/04/08 13:55:49;;;;;;;4.00;1.60;;;;;;;;;;5063842;28;20036;-58
2021/04/08 13:58:16;;;;;;;5.00;1.30;;;;;;;;;;5062228;28;20048;-58
2021/04/08 14:00:47;;;;;;;12.82;2.00;;;;;;;;;;5064362;28;20499;-66
2021/04/08 14:03:13;;;;;;;8.02;1.17;;;;;;;;;;5063030;28;20051;-58
2021/04/08 14:05:39;;;;;;;5.80;1.27;;;;;;;;;;5063598;28;20043;-52
2021/04/08 14:08:06;;;;;;;10.38;1.42;;;;;;;;;;5063601;28;20032;-56
2021/04/08 14:10:32;;;;;;;3.17;1.02;;;;;;;;;;5061767;28;20403;-58
2021/04/08 14:12:58;;;;;;;7.60;1.20;;;;;;;;;;5064984;28;20045;-56
2021/04/08 14:15:25;;;;;;;4.53;1.30;;;;;;;;;;5062273;28;20044;-57
2021/04/08 14:17:57;;;;;;;8.65;1.55;;;;;;;;;;5063102;28;20040;-58
2021/04/08 14:20:23;;;;;;;8.40;1.57;;;;;;;;;;5065787;28;20068;-58
2021/04/08 14:22:50;;;;;;;8.43;1.40;;;;;;;;;;5064343;28;20553;-57
2021/04/08 14:25:16;;;;;;;8.27;1.40;;;;;;;;;;5069607;28;20039;-56
2021/04/08 14:27:42;;;;;;;10.20;1.40;;;;;;;;;;5064757;28;20033;-59
2021/04/08 14:30:09;;;;;;;9.27;1.67;;;;;;;;;;5067006;28;20715;-57
2021/04/08 14:32:35;;;;;;;7.57;1.45;;;;;;;;;;5065969;28;20041;-58
2021/04/08 14:35:03;;;;;;;4.37;1.23;;;;;;;;;;5066760;28;20056;-59
2021/04/08 14:37:29;;;;;;;4.15;1.35;;;;;;;;;;5068384;28;20271;-59
2021/04/08 14:39:55;;;;;;;11.02;2.00;;;;;;;;;;5063187;28;20040;-58
2021/04/08 14:42:22;;;;;;;11.05;1.60;;;;;;;;;;5065176;28;20115;-58
2021/04/08 14:44:49;;;;;;;7.20;2.03;;;;;;;;;;5068349;28;20136;-58
2021/04/08 14:47:15;;;;;;;6.82;1.23;;;;;;;;;;5055200;28;20044;-57